Time;durP1;ratioP1;P1;durP2;ratioP2;P2;SDS_P1;SDS_P2;PMS_P1;PMS_P2;Temp;Humidity;BMP_temperature;BMP_pressure;BME280_temperature;BME280_humidity;BME280_pressure;Samples;Min_cycle;Max_cycle;Signal;HPM_P1;HPM_P2
2023/05/27 00:01:07;;;;;;;11.93;3.55;;;;;;;16.93;45.46;97396.81;4860089;29;20479;-74
2023/05/27 00:03:35;;;;;;;10.20;3.90;;;;;;;16.80;45.65;97385.22;4859553;29;20502;-74
2023/05/27 00:06:03;;;;;;;8.60;4.05;;;;;;;16.75;45.57;97390.28;4859952;29;20136;-74
2023/05/27 00:08:32;;;;;;;10.82;3.70;;;;;;;16.69;45.76;97393.69;4859705;29;20483;-74
2023/05/27 00:11:00;;;;;;;19.17;3.50;;;;;;;16.61;45.82;97391.25;4860149;29;20447;-74
2023/05/27 00:13:27;;;;;;;13.73;4.05;;;;;;;16.56;46.01;97391.06;4859537;29;20049;-74
2023/05/27 00:15:55;;;;;;;13.48;3.45;;;;;;;16.50;46.37;97383.94;4859613;29;20095;-74
2023/05/27 00:18:23;;;;;;;7.95;3.88;;;;;;;16.44;46.34;97386.38;4864957;29;20085;-75
2023/05/27 00:20:51;;;;;;;12.70;3.42;;;;;;;16.37;47.55;97390.78;4873266;29;20057;-75
2023/05/27 00:23:18;;;;;;;8.88;3.70;;;;;;;16.37;47.19;97390.78;4873305;29;20077;-75
2023/05/27 00:25:48;;;;;;;13.30;3.70;;;;;;;16.36;47.98;97393.66;4870202;29;20058;-75
2023/05/27 00:28:15;;;;;;;14.25;5.05;;;;;;;16.36;47.13;97388.38;4860096;29;20061;-75
2023/05/27 00:30:43;;;;;;;12.50;4.28;;;;;;;16.36;47.10;97389.19;4859707;29;20110;-74
2023/05/27 00:33:11;;;;;;;9.82;4.13;;;;;;;16.30;46.88;97387.34;4859557;29;20057;-74
2023/05/27 00:35:38;;;;;;;10.85;3.75;;;;;;;16.21;47.09;97384.06;4859335;29;20113;-74
2023/05/27 00:38:06;;;;;;;8.45;3.60;;;;;;;16.19;48.63;97387.94;4859418;29;20061;-74
2023/05/27 00:40:35;;;;;;;10.45;3.90;;;;;;;16.23;47.71;97386.53;4859463;29;20074;-74
2023/05/27 00:43:04;;;;;;;12.25;4.10;;;;;;;16.26;47.79;97378.22;4859446;29;20053;-74
2023/05/27 00:45:32;;;;;;;9.93;3.63;;;;;;;16.27;47.20;97375.41;4859303;29;20050;-75
2023/05/27 00:48:03;;;;;;;9.48;3.65;;;;;;;16.27;47.69;97379.84;4859893;29;20054;-74
2023/05/27 00:50:31;;;;;;;9.45;4.60;;;;;;;16.27;47.89;97378.03;4859128;29;20100;-74
2023/05/27 00:52:59;;;;;;;8.35;3.20;;;;;;;16.27;47.63;97370.13;4859189;29;20110;-74
2023/05/27 00:55:27;;;;;;;11.18;3.55;;;;;;;16.29;47.48;97372.56;4859132;29;20053;-75
2023/05/27 00:57:55;;;;;;;9.43;3.58;;;;;;;16.33;47.47;97371.13;4859386;29;20057;-74
2023/05/27 01:00:24;;;;;;;10.18;3.97;;;;;;;16.28;47.21;97366.47;4859297;29;20050;-74
2023/05/27 01:02:52;;;;;;;11.43;3.70;;;;;;;16.16;47.32;97367.25;4859079;29;20061;-74
2023/05/27 01:05:21;;;;;;;9.77;3.63;;;;;;;16.10;48.06;97368.88;4859103;29;20425;-74
2023/05/27 01:08:01;;;;;;;12.95;4.35;;;;;;;16.05;48.08;97369.47;4859302;29;20065;-74
2023/05/27 01:10:37;;;;;;;11.88;4.15;;;;;;;15.99;47.84;97364.19;4859236;29;20046;-74
2023/05/27 01:13:13;;;;;;;9.82;3.58;;;;;;;15.96;48.76;97361.91;4859232;29;20126;-74
2023/05/27 01:15:43;;;;;;;11.25;3.85;;;;;;;15.95;48.58;97355.84;4859228;29;20109;-75
2023/05/27 01:18:16;;;;;;;8.57;3.80;;;;;;;15.91;48.43;97354.63;4859528;29;20061;-74
2023/05/27 01:20:45;;;;;;;14.43;4.72;;;;;;;15.86;48.32;97357.03;4859145;29;20056;-74
2023/05/27 01:23:14;;;;;;;11.23;3.97;;;;;;;15.80;48.65;97360.44;4859103;29;20053;-74
2023/05/27 01:25:42;;;;;;;9.60;3.50;;;;;;;15.77;48.81;97359.03;4861960;29;20057;-74
2023/05/27 01:28:10;;;;;;;12.00;3.38;;;;;;;15.77;48.87;97351.13;4862676;29;20053;-74
2023/05/27 01:30:37;;;;;;;10.38;3.97;;;;;;;15.76;48.84;97346.88;4862451;29;20480;-74
2023/05/27 01:33:10;;;;;;;9.75;4.10;;;;;;;15.70;48.98;97347.66;4862375;29;20473;-74
2023/05/27 01:35:41;;;;;;;;;;;;;;;15.65;49.00;97348.22;4862475;29;20084;-74
2023/05/27 01:38:13;;;;;;;11.65;4.30;;;;;;;15.58;49.45;97347.38;4862235;29;20427;-74
2023/05/27 01:40:42;;;;;;;8.40;3.42;;;;;;;15.51;49.78;97353.63;4862599;29;20114;-74
2023/05/27 01:43:10;;;;;;;12.20;4.70;;;;;;;15.42;49.51;97356.41;4861909;29;20542;-74
2023/05/27 01:45:38;;;;;;;16.50;5.03;;;;;;;15.34;49.70;97343.41;4861912;29;20061;-74
2023/05/27 01:48:06;;;;;;;10.05;3.90;;;;;;;15.30;50.05;97344.78;4862053;29;20506;-74
2023/05/27 01:50:34;;;;;;;12.23;4.40;;;;;;;15.32;49.87;97342.78;4861931;29;20049;-74
2023/05/27 01:53:03;;;;;;;15.02;4.53;;;;;;;15.31;50.00;97346.44;4861821;29;20053;-74
2023/05/27 01:55:31;;;;;;;11.90;3.60;;;;;;;15.30;50.42;97343.97;4861645;29;20109;-74
2023/05/27 01:58:00;;;;;;;11.02;3.67;;;;;;;15.25;50.28;97345.38;4874653;29;20056;-75
2023/05/27 02:00:27;;;;;;;14.13;3.92;;;;;;;15.22;50.40;97335.25;4876140;29;20053;-75
2023/05/27 02:02:55;;;;;;;10.90;4.38;;;;;;;15.16;50.04;97335.22;4865331;29;20145;-74
2023/05/27 02:05:22;;;;;;;14.90;4.57;;;;;;;15.12;50.67;97339.22;4861725;29;20054;-74
2023/05/27 02:07:50;;;;;;;10.50;4.30;;;;;;;15.10;50.57;97326.28;4862073;29;20434;-74
2023/05/27 02:10:18;;;;;;;11.70;4.10;;;;;;;15.12;50.39;97328.72;4862096;29;20053;-74
2023/05/27 02:12:47;;;;;;;7.80;3.55;;;;;;;15.13;50.55;97330.31;4861771;29;20062;-74
2023/05/27 02:15:16;;;;;;;8.38;4.07;;;;;;;15.11;50.12;97327.91;4861363;29;20502;-74
2023/05/27 02:17:46;;;;;;;11.90;4.15;;;;;;;15.08;50.09;97328.28;4859947;29;20045;-74
2023/05/27 02:20:14;;;;;;;9.20;3.47;;;;;;;15.04;49.99;97334.91;4858758;29;20050;-75
2023/05/27 02:22:41;;;;;;;12.40;4.15;;;;;;;15.02;50.05;97336.91;4859465;29;20562;-74
2023/05/27 02:25:09;;;;;;;10.63;3.90;;;;;;;14.99;50.21;97329.44;4859762;29;20136;-74
2023/05/27 02:27:37;;;;;;;10.95;3.90;;;;;;;14.99;50.27;97330.25;4861377;29;20061;-74
2023/05/27 02:30:05;;;;;;;14.13;4.38;;;;;;;15.05;50.57;97336.56;4860682;29;20065;-74
2023/05/27 02:32:34;;;;;;;14.13;4.35;;;;;;;15.09;50.09;97335.19;4860421;29;20133;-74
2023/05/27 02:35:02;;;;;;;10.27;4.00;;;;;;;15.06;50.01;97330.28;4860435;29;20057;-74
2023/05/27 02:37:30;;;;;;;9.27;4.30;;;;;;;15.03;50.38;97339.38;4861066;29;20061;-74
2023/05/27 02:39:57;;;;;;;11.02;3.35;;;;;;;15.06;50.56;97337.38;4860482;29;20050;-75
2023/05/27 02:42:25;;;;;;;13.10;4.00;;;;;;;15.06;50.45;97335.53;4859946;29;20053;-74
2023/05/27 02:44:53;;;;;;;16.02;4.35;;;;;;;15.05;50.33;97328.69;4859362;29;20054;-74
2023/05/27 02:47:20;;;;;;;12.30;3.92;;;;;;;15.05;50.85;97344.44;4860867;29;20132;-74
2023/05/27 02:49:49;;;;;;;11.45;3.88;;;;;;;15.01;50.89;97337.94;4861110;29;20061;-74
2023/05/27 02:52:17;;;;;;;15.25;4.13;;;;;;;14.94;51.07;97342.34;4861005;29;20049;-74
2023/05/27 02:54:44;;;;;;;12.38;4.68;;;;;;;14.88;51.61;97340.47;4860412;29;20576;-74
2023/05/27 02:57:12;;;;;;;11.50;3.88;;;;;;;14.78;51.80;97332.91;4860923;29;20084;-74
2023/05/27 02:59:39;;;;;;;8.48;4.57;;;;;;;14.70;51.90;97333.88;4860844;29;20078;-74
2023/05/27 03:02:07;;;;;;;13.13;4.47;;;;;;;14.66;52.02;97330.00;4860931;29;20062;-74
2023/05/27 03:04:35;;;;;;;11.23;4.45;;;;;;;14.61;52.17;97330.56;4860464;29;20485;-74
2023/05/27 03:07:04;;;;;;;16.95;4.75;;;;;;;14.59;52.10;97329.13;4860644;29;20540;-74
2023/05/27 03:09:32;;;;;;;12.60;4.03;;;;;;;14.56;51.80;97326.88;4860878;29;20128;-74
2023/05/27 03:11:59;;;;;;;12.68;4.75;;;;;;;14.52;52.00;97325.59;4860615;29;20096;-74
2023/05/27 03:14:27;;;;;;;12.02;3.97;;;;;;;14.54;52.76;97326.22;4860182;29;20518;-74
2023/05/27 03:16:54;;;;;;;11.82;4.30;;;;;;;14.55;52.56;97325.25;4860769;29;20467;-74
2023/05/27 03:19:22;;;;;;;9.68;4.28;;;;;;;14.54;52.62;97319.19;4860511;29;20057;-74
2023/05/27 03:21:51;;;;;;;8.38;4.20;;;;;;;14.54;52.48;97329.69;4860578;29;20054;-74
2023/05/27 03:24:21;;;;;;;9.23;4.05;;;;;;;14.52;52.61;97322.97;4860583;29;20057;-74
2023/05/27 03:26:49;;;;;;;12.45;4.55;;;;;;;14.45;52.50;97319.47;4860460;29;20121;-74
2023/05/27 03:29:17;;;;;;;11.50;4.40;;;;;;;14.41;52.71;97326.94;4860499;29;20049;-74
2023/05/27 03:31:44;;;;;;;13.30;4.65;;;;;;;14.38;52.63;97322.03;4860287;29;20083;-75
2023/05/27 03:34:12;;;;;;;11.77;4.40;;;;;;;14.35;52.85;97319.81;4860199;29;20054;-74
2023/05/27 03:36:40;;;;;;;12.70;4.47;;;;;;;14.32;53.05;97323.63;4860151;29;20053;-74
2023/05/27 03:39:07;;;;;;;16.50;4.10;;;;;;;14.28;52.92;97316.28;4860110;29;20057;-74
2023/05/27 03:41:36;;;;;;;10.88;4.40;;;;;;;14.25;52.98;97321.91;4860347;29;20145;-74
2023/05/27 03:44:04;;;;;;;10.65;3.67;;;;;;;14.19;53.21;97318.22;4860100;29;20057;-74
2023/05/27 03:46:31;;;;;;;11.63;5.22;;;;;;;14.14;53.25;97318.78;4859466;29;20096;-74
2023/05/27 03:48:59;;;;;;;12.77;4.30;;;;;;;14.11;53.38;97311.28;4860180;29;20065;-74
2023/05/27 03:51:27;;;;;;;13.38;4.13;;;;;;;14.09;53.58;97315.09;4860016;29;20050;-74
2023/05/27 03:53:55;;;;;;;18.65;4.63;;;;;;;14.06;53.71;97318.09;4859795;29;20096;-74
2023/05/27 03:56:22;;;;;;;15.52;5.10;;;;;;;14.09;53.86;97322.97;4860068;29;20110;-74
2023/05/27 03:58:51;;;;;;;11.77;4.13;;;;;;;14.08;53.86;97318.72;4860122;29;20049;-74
2023/05/27 04:01:20;;;;;;;11.07;4.45;;;;;;;14.05;53.64;97316.47;4859795;29;20049;-74
2023/05/27 04:03:48;;;;;;;11.00;4.53;;;;;;;14.04;53.69;97314.84;4859664;29;20065;-74
2023/05/27 04:06:16;;;;;;;10.07;4.15;;;;;;;14.01;53.80;97322.09;4859517;29;20053;-74
2023/05/27 04:08:43;;;;;;;9.38;4.13;;;;;;;14.01;53.75;97316.03;4859970;29;20484;-74
2023/05/27 04:11:12;;;;;;;12.65;3.67;;;;;;;13.99;53.86;97312.78;4859867;29;20088;-74
2023/05/27 04:13:39;;;;;;;16.98;5.82;;;;;;;13.99;54.18;97316.22;4859661;29;20404;-74
2023/05/27 04:16:10;;;;;;;10.52;4.10;;;;;;;13.99;53.91;97310.16;4859505;29;20049;-74
2023/05/27 04:18:37;;;;;;;9.93;3.85;;;;;;;13.99;54.25;97312.78;4859567;29;20151;-73
2023/05/27 04:21:05;;;;;;;12.25;4.40;;;;;;;13.98;54.11;97311.97;4859750;29;20058;-74
2023/05/27 04:23:33;;;;;;;15.25;5.15;;;;;;;14.00;54.28;97309.97;4859777;29;20065;-74
2023/05/27 04:26:00;;;;;;;13.73;4.50;;;;;;;14.00;54.33;97317.03;4859622;29;20141;-74
2023/05/27 04:28:28;;;;;;;9.93;4.10;;;;;;;13.99;54.27;97321.47;4859642;29;20057;-74
2023/05/27 04:30:56;;;;;;;15.70;4.60;;;;;;;13.97;53.94;97320.84;4859497;29;20137;-74
2023/05/27 04:33:25;;;;;;;11.27;3.92;;;;;;;13.97;54.40;97314.75;4859267;29;20120;-74
2023/05/27 04:35:53;;;;;;;16.35;4.45;;;;;;;13.98;54.12;97325.09;4859170;29;20570;-74
2023/05/27 04:38:21;;;;;;;15.68;4.00;;;;;;;13.99;54.21;97321.47;4859623;29;20562;-74
2023/05/27 04:40:52;;;;;;;12.07;4.30;;;;;;;13.99;54.06;97326.72;4859662;29;20057;-74
2023/05/27 04:43:20;;;;;;;9.80;4.07;;;;;;;14.01;54.37;97326.53;4859575;29;20054;-74
2023/05/27 04:45:48;;;;;;;12.32;4.38;;;;;;;14.07;53.94;97330.22;4859057;29;20057;-74
2023/05/27 04:48:16;;;;;;;12.27;4.28;;;;;;;14.07;53.58;97325.78;4859613;29;20054;-75
2023/05/27 04:50:45;;;;;;;8.77;4.03;;;;;;;14.08;53.41;97321.34;4859644;29;20049;-74
2023/05/27 04:53:13;;;;;;;10.00;4.28;;;;;;;14.07;53.46;97322.34;4859451;29;20097;-74
2023/05/27 05:38:46;;;;;;;10.68;3.80;;;;;;;14.63;51.34;97330.38;5590661;23;20061;-80
2023/05/27 05:41:15;;;;;;;9.13;4.07;;;;;;;14.63;51.95;97328.56;4881603;29;20051;-79
2023/05/27 05:43:43;;;;;;;7.20;3.38;;;;;;;14.65;51.59;97331.00;4881845;29;20049;-80
2023/05/27 05:46:11;;;;;;;11.20;3.80;;;;;;;14.67;51.64;97330.81;4873032;29;20109;-79
2023/05/27 05:48:39;;;;;;;8.45;4.00;;;;;;;14.63;52.04;97331.19;4866625;29;20125;-80
2023/05/27 05:51:07;;;;;;;12.40;4.40;;;;;;;14.65;52.15;97325.75;4865174;29;20085;-80
2023/05/27 05:53:35;;;;;;;11.10;3.72;;;;;;;14.68;51.44;97317.50;4853883;29;20050;-80
2023/05/27 05:56:04;;;;;;;8.25;3.42;;;;;;;14.73;51.79;97320.34;4861505;29;20575;-79
2023/05/27 05:58:32;;;;;;;15.32;4.18;;;;;;;14.80;51.69;97323.03;4865343;29;20105;-80
2023/05/27 06:01:00;;;;;;;11.07;4.05;;;;;;;14.85;51.25;97323.28;4866740;29;20061;-80
2023/05/27 06:03:27;;;;;;;10.32;4.00;;;;;;;14.88;50.39;97322.09;4863948;29;20054;-79
2023/05/27 06:05:55;;;;;;;10.15;4.30;;;;;;;14.89;50.86;97329.78;4863059;29;20061;-80
2023/05/27 06:08:23;;;;;;;11.45;3.97;;;;;;;14.95;51.16;97334.25;4863214;29;20053;-79
2023/05/27 06:10:51;;;;;;;16.85;4.15;;;;;;;15.02;51.30;97331.66;4875724;29;20053;-79
2023/05/27 06:13:20;;;;;;;13.52;3.70;;;;;;;15.06;50.66;97330.28;4883921;29;20053;-80
2023/05/27 06:15:48;;;;;;;12.32;4.13;;;;;;;15.10;51.73;97326.28;4875968;29;20054;-79
2023/05/27 06:18:15;;;;;;;8.02;3.58;;;;;;;15.20;52.45;97329.38;4867506;29;20053;-80
2023/05/27 06:20:43;;;;;;;7.93;4.00;;;;;;;15.33;52.80;97330.47;4876210;29;20055;-79
2023/05/27 06:23:12;;;;;;;10.55;3.75;;;;;;;15.44;52.20;97322.03;4882555;29;20053;-80
2023/05/27 06:25:45;;;;;;;10.30;3.85;;;;;;;15.55;50.33;97328.56;4885501;29;20062;-80
2023/05/27 08:35:54;;;;;;;11.00;4.60;;;;;;;19.56;42.88;97292.75;5141231;23;20426;-76
2023/05/27 08:38:21;;;;;;;7.55;3.40;;;;;;;19.60;42.58;97291.28;4864009;29;20098;-77
2023/05/27 08:40:49;;;;;;;10.88;3.90;;;;;;;19.65;42.39;97285.31;4863892;29;20077;-76
2023/05/27 08:43:18;;;;;;;8.45;3.63;;;;;;;19.71;43.00;97281.81;4863506;29;20102;-77
2023/05/27 08:45:45;;;;;;;9.00;4.20;;;;;;;19.79;41.97;97288.63;4863254;29;20092;-76
2023/05/27 08:48:13;;;;;;;10.02;3.72;;;;;;;19.87;41.83;97283.03;4863517;29;20049;-76
2023/05/27 08:50:40;;;;;;;9.20;3.83;;;;;;;19.97;41.97;97285.94;4864402;29;20053;-76
2023/05/27 08:53:09;;;;;;;10.65;3.28;;;;;;;20.06;41.25;97278.50;4866285;29;20136;-76
2023/05/27 08:55:40;;;;;;;10.05;3.78;;;;;;;20.14;41.18;97288.78;4862839;29;20050;-76
2023/05/27 08:58:09;;;;;;;7.03;3.40;;;;;;;20.17;40.43;97283.00;4863430;29;20106;-76
2023/05/27 09:00:37;;;;;;;9.52;4.20;;;;;;;20.21;40.93;97278.06;4863006;29;20575;-76
2023/05/27 09:03:05;;;;;;;8.55;4.28;;;;;;;20.28;40.88;97278.78;4863205;29;20498;-76
2023/05/27 09:05:33;;;;;;;6.70;3.35;;;;;;;20.33;40.73;97277.06;4862587;29;20053;-75
2023/05/27 09:08:00;;;;;;;7.82;3.55;;;;;;;20.44;40.35;97277.31;4862894;29;20057;-76
2023/05/27 09:10:37;;;;;;;9.70;4.22;;;;;;;20.53;40.23;97270.63;4863150;29;20053;-76
2023/05/27 09:13:05;;;;;;;7.65;3.33;;;;;;;20.62;40.98;97271.13;4862932;29;20102;-76
2023/05/27 09:15:34;;;;;;;11.07;3.65;;;;;;;20.71;41.17;97265.28;4862553;29;20113;-76
2023/05/27 09:18:03;;;;;;;7.05;3.90;;;;;;;20.80;40.70;97271.03;4862736;29;20103;-76
2023/05/27 09:20:31;;;;;;;9.30;3.80;;;;;;;20.86;40.58;97269.28;4862880;29;20112;-76
2023/05/27 09:23:00;;;;;;;7.50;3.40;;;;;;;20.91;40.79;97270.22;4865386;29;20060;-76
2023/05/27 09:25:28;;;;;;;9.05;3.60;;;;;;;20.98;40.87;97257.66;4863150;29;20053;-77
2023/05/27 09:27:57;;;;;;;10.00;4.13;;;;;;;21.10;40.33;97264.78;4862749;29;20114;-76
2023/05/27 09:30:26;;;;;;;6.07;3.38;;;;;;;21.15;39.25;97260.41;4862869;29;20057;-76
2023/05/27 09:33:01;;;;;;;10.68;4.18;;;;;;;21.18;38.73;97261.78;4862370;29;20078;-77
2023/05/27 09:35:29;;;;;;;10.07;4.18;;;;;;;21.22;39.23;97262.13;4862305;29;20113;-76
2023/05/27 09:38:06;;;;;;;9.50;4.15;;;;;;;21.25;38.61;97249.19;4862454;29;20065;-77
2023/05/27 09:40:36;;;;;;;6.32;3.55;;;;;;;21.31;39.80;97255.41;4862290;29;20053;-77
2023/05/27 09:43:05;;;;;;;10.52;3.80;;;;;;;21.32;39.18;97249.09;4862361;29;20503;-77
2023/05/27 09:45:34;;;;;;;11.45;4.40;;;;;;;21.35;39.60;97254.72;4861511;29;20110;-77
2023/05/27 09:48:03;;;;;;;11.35;3.90;;;;;;;21.39;38.23;97253.19;4864390;29;20057;-76
2023/05/27 09:50:31;;;;;;;9.38;4.03;;;;;;;21.45;37.98;97255.97;4862317;29;20515;-77
2023/05/27 09:53:00;;;;;;;8.27;3.72;;;;;;;21.48;37.82;97256.31;4862034;29;20056;-76
2023/05/27 09:55:39;;;;;;;8.23;3.60;;;;;;;21.50;38.09;97248.13;4861774;29;20077;-76
2023/05/27 09:58:08;;;;;;;8.48;4.07;;;;;;;21.51;37.82;97247.88;4866036;29;20066;-77
2023/05/27 10:00:37;;;;;;;7.55;4.15;;;;;;;21.54;37.86;97249.28;4878825;29;20057;-77
2023/05/27 10:03:06;;;;;;;10.02;3.70;;;;;;;21.57;37.87;97251.44;4878563;29;20075;-76
2023/05/27 10:05:33;;;;;;;7.28;3.30;;;;;;;21.59;37.62;97246.72;4877405;29;20144;-76
2023/05/27 10:08:01;;;;;;;10.68;4.10;;;;;;;21.67;38.44;97242.88;4862030;29;20586;-77
2023/05/27 10:10:33;;;;;;;9.82;4.10;;;;;;;21.78;38.71;97240.19;4862583;29;20088;-77
2023/05/27 10:13:01;;;;;;;7.63;3.90;;;;;;;21.86;37.22;97238.97;4862410;29;20046;-77
2023/05/27 10:15:32;;;;;;;7.10;3.63;;;;;;;21.89;37.20;97248.34;4861738;29;20558;-77
2023/05/27 10:18:02;;;;;;;13.82;4.57;;;;;;;21.86;36.82;97238.97;4861747;29;20069;-76
2023/05/27 10:20:32;;;;;;;8.57;3.38;;;;;;;21.86;37.07;97232.88;4861633;29;20434;-77
2023/05/27 10:23:11;;;;;;;5.18;3.38;;;;;;;21.86;34.57;97225.69;4861527;29;20057;-77
2023/05/27 10:25:40;;;;;;;11.52;3.70;;;;;;;21.85;35.19;97239.22;4861474;29;20582;-76
2023/05/27 10:28:08;;;;;;;13.45;3.58;;;;;;;21.88;36.04;97233.44;4861503;29;20053;-77
2023/05/27 10:30:47;;;;;;;7.90;3.83;;;;;;;21.92;36.28;97234.56;4861493;29;20081;-77
2023/05/27 10:33:14;;;;;;;7.65;4.13;;;;;;;21.91;35.57;97227.63;4861235;29;20113;-77
2023/05/27 10:35:43;;;;;;;11.45;3.83;;;;;;;21.95;36.42;97234.09;4860984;29;20057;-77
2023/05/27 10:38:18;;;;;;;9.32;3.75;;;;;;;21.99;35.91;97233.34;4861281;29;20053;-76
2023/05/27 10:40:47;;;;;;;9.18;3.60;;;;;;;22.01;36.81;97219.84;4861401;29;20537;-76
2023/05/27 10:43:18;;;;;;;9.00;3.85;;;;;;;22.04;36.06;97231.84;4861071;29;20089;-77
2023/05/27 10:45:47;;;;;;;6.77;4.07;;;;;;;22.06;35.85;97224.44;4861192;29;20058;-77
2023/05/27 10:48:22;;;;;;;14.95;4.03;;;;;;;22.10;35.78;97226.38;4861434;29;20053;-76
2023/05/27 10:50:53;;;;;;;9.93;4.03;;;;;;;22.09;34.41;97230.09;4861524;29;20141;-76
2023/05/27 10:53:21;;;;;;;9.35;3.17;;;;;;;22.04;34.83;97232.66;4861391;29;20061;-76
2023/05/27 10:55:51;;;;;;;6.65;3.35;;;;;;;21.99;35.18;97224.59;4860645;29;20049;-76
2023/05/27 10:58:19;;;;;;;8.75;3.72;;;;;;;22.00;35.90;97220.91;4861091;29;20140;-77
2023/05/27 11:00:50;;;;;;;9.25;3.72;;;;;;;22.07;34.89;97218.09;4861021;29;20068;-76
2023/05/27 11:03:22;;;;;;;12.27;3.97;;;;;;;22.09;34.70;97216.81;4860912;29;20064;-77
2023/05/27 11:05:58;;;;;;;8.50;3.53;;;;;;;22.09;35.17;97214.16;4861253;29;20077;-77
2023/05/27 11:08:26;;;;;;;6.03;3.05;;;;;;;22.14;34.96;97208.91;4860681;29;20061;-77
2023/05/27 11:10:59;;;;;;;6.53;3.53;;;;;;;22.19;34.40;97208.19;4867640;29;20058;-76
2023/05/27 11:13:34;;;;;;;6.45;3.70;;;;;;;22.23;33.55;97206.69;4878226;29;20061;-77
2023/05/27 11:16:04;;;;;;;5.35;3.38;;;;;;;22.26;33.05;97205.41;4871732;29;20571;-77
2023/05/27 11:18:36;;;;;;;5.47;3.03;;;;;;;22.27;32.33;97207.03;4861802;29;20117;-77
2023/05/27 11:21:04;;;;;;;9.40;3.55;;;;;;;22.26;32.56;97208.06;4860855;29;20057;-76
2023/05/27 11:23:40;;;;;;;7.05;3.67;;;;;;;22.26;32.89;97197.41;4860794;29;20097;-76
2023/05/27 11:26:13;;;;;;;10.45;3.67;;;;;;;22.27;32.71;97191.88;4860788;29;20049;-77
2023/05/27 11:28:46;;;;;;;11.75;4.03;;;;;;;22.30;33.41;97185.25;4860882;29;20050;-77
2023/05/27 11:31:15;;;;;;;7.75;3.10;;;;;;;22.36;32.94;97192.28;4860683;29;20053;-77
2023/05/27 11:33:45;;;;;;;10.10;3.72;;;;;;;22.39;31.88;97183.81;4860636;29;20058;-77
2023/05/27 11:36:14;;;;;;;11.73;3.50;;;;;;;22.41;31.95;97185.19;4860283;29;20071;-77
2023/05/27 11:38:53;;;;;;;8.15;3.50;;;;;;;22.47;32.95;97182.59;4860706;29;20058;-77
2023/05/27 11:41:22;;;;;;;9.55;3.55;;;;;;;22.53;32.46;97174.47;4860465;29;20053;-77
2023/05/27 11:43:51;;;;;;;8.57;3.05;;;;;;;22.58;31.12;97174.53;4860123;29;20119;-77
2023/05/27 11:46:20;;;;;;;4.68;2.97;;;;;;;22.56;31.51;97175.81;4860237;29;20079;-77
2023/05/27 11:48:48;;;;;;;6.10;3.30;;;;;;;22.53;30.72;97166.47;4860155;29;20098;-77
2023/05/27 11:51:16;;;;;;;6.22;3.03;;;;;;;22.50;31.40;97166.16;4860365;29;20062;-77
2023/05/27 11:53:47;;;;;;;7.13;3.17;;;;;;;22.49;31.77;97160.03;4860038;29;20654;-77
2023/05/27 11:56:16;;;;;;;4.37;2.70;;;;;;;22.51;31.52;97154.50;4859755;29;20192;-77
2023/05/27 11:58:43;;;;;;;7.93;3.70;;;;;;;22.51;30.83;97157.94;4860255;29;20049;-77
2023/05/27 12:01:11;;;;;;;7.22;3.25;;;;;;;22.54;31.89;97159.31;4860146;29;20066;-77
2023/05/27 12:03:41;;;;;;;5.53;3.13;;;;;;;22.56;29.79;97154.53;4860036;29;20054;-77
2023/05/27 12:06:09;;;;;;;3.70;2.42;;;;;;;22.53;27.32;97155.84;4860103;29;20082;-77
2023/05/27 12:08:38;;;;;;;5.00;2.60;;;;;;;22.49;27.46;97148.59;4859786;29;20057;-77
2023/05/27 12:11:05;;;;;;;7.47;2.80;;;;;;;22.46;27.87;97147.25;4860070;29;20487;-77
2023/05/27 12:13:33;;;;;;;8.40;3.28;;;;;;;22.51;29.51;97138.53;4860106;29;20107;-77
2023/05/27 12:16:02;;;;;;;6.50;3.05;;;;;;;22.56;29.73;97139.41;4859569;29;20144;-77
2023/05/27 12:18:30;;;;;;;6.35;3.15;;;;;;;22.58;30.81;97131.97;4860073;29;20058;-77
2023/05/27 12:20:59;;;;;;;5.93;3.53;;;;;;;22.61;30.96;97134.16;4859915;29;20084;-77
2023/05/27 12:23:27;;;;;;;7.75;3.28;;;;;;;22.65;31.23;97125.69;4859734;29;20073;-76
2023/05/27 12:25:55;;;;;;;8.23;2.90;;;;;;;22.69;31.34;97118.81;4859680;29;20053;-77
2023/05/27 12:28:22;;;;;;;7.88;3.22;;;;;;;22.75;31.40;97115.19;4860019;29;20106;-77
2023/05/27 12:30:50;;;;;;;7.30;3.42;;;;;;;22.82;31.74;97115.78;4859922;29;20078;-77
2023/05/27 12:33:17;;;;;;;8.27;2.85;;;;;;;22.89;32.42;97105.75;4859687;29;20115;-76
2023/05/27 12:35:45;;;;;;;8.82;2.80;;;;;;;22.98;32.22;97117.59;4859179;29;20134;-77
2023/05/27 12:38:14;;;;;;;5.10;2.72;;;;;;;23.00;30.85;97110.22;4859777;29;20058;-77
2023/05/27 12:40:42;;;;;;;6.85;3.03;;;;;;;22.99;31.40;97110.41;4859517;29;20575;-77
2023/05/27 12:43:09;;;;;;;7.72;3.15;;;;;;;23.01;32.02;97098.50;4859511;29;20057;-77
2023/05/27 12:45:37;;;;;;;5.38;3.65;;;;;;;23.06;32.11;97108.38;4859375;29;20491;-77
2023/05/27 12:48:05;;;;;;;11.27;3.10;;;;;;;23.09;32.14;97104.44;4859606;29;20419;-77
2023/05/27 12:50:33;;;;;;;5.82;3.15;;;;;;;23.07;31.98;97094.06;4859556;29;20060;-77
2023/05/27 12:53:03;;;;;;;8.52;3.80;;;;;;;23.05;32.15;97088.16;4859828;29;20605;-77
2023/05/27 12:55:32;;;;;;;6.57;3.40;;;;;;;23.04;32.35;97089.22;4859354;29;20053;-77
2023/05/27 12:57:59;;;;;;;7.53;3.42;;;;;;;23.03;32.40;97091.06;4859537;29;20102;-77
2023/05/27 13:00:28;;;;;;;6.80;2.90;;;;;;;23.03;32.55;97088.41;4860067;29;20065;-76
2023/05/27 13:02:56;;;;;;;5.95;3.03;;;;;;;23.04;31.89;97086.56;4857975;29;20057;-77
2023/05/27 13:05:24;;;;;;;8.00;3.60;;;;;;;23.03;32.23;97084.97;4859397;29;20049;-77
2023/05/27 13:07:57;;;;;;;7.57;3.53;;;;;;;23.06;31.39;97081.00;4859368;29;20194;-77
2023/05/27 13:10:25;;;;;;;5.85;2.88;;;;;;;23.06;31.84;97073.81;4860207;29;20085;-77
2023/05/27 13:12:54;;;;;;;8.00;2.95;;;;;;;23.10;32.46;97066.13;4860086;29;20053;-77
2023/05/27 13:15:23;;;;;;;7.30;2.95;;;;;;;23.11;32.50;97073.06;4858844;29;20046;-77
2023/05/27 13:17:52;;;;;;;8.63;3.22;;;;;;;23.10;32.31;97068.78;4859387;29;20144;-77
2023/05/27 13:20:21;;;;;;;6.75;2.97;;;;;;;23.08;32.00;97066.38;4860712;29;20065;-77
2023/05/27 13:22:49;;;;;;;7.55;3.22;;;;;;;23.06;31.63;97068.47;4862609;29;20057;-77
2023/05/27 13:25:17;;;;;;;6.63;2.92;;;;;;;23.02;31.93;97068.19;4862809;29;20092;-77
2023/05/27 13:27:45;;;;;;;7.10;2.67;;;;;;;23.02;31.79;97062.03;4862716;29;20061;-78
2023/05/27 13:30:15;;;;;;;7.95;3.53;;;;;;;23.00;31.67;97064.16;4862411;29;20130;-77
2023/05/27 13:32:43;;;;;;;8.60;3.08;;;;;;;22.96;31.49;97047.88;4862348;29;20085;-77
2023/05/27 13:35:12;;;;;;;9.77;3.85;;;;;;;22.96;31.89;97042.56;4862074;29;20045;-77
2023/05/27 13:37:40;;;;;;;8.60;3.63;;;;;;;22.98;32.40;97045.78;4862790;29;20455;-78
2023/05/27 13:40:09;;;;;;;4.07;2.97;;;;;;;22.97;31.75;97049.47;4863074;29;20121;-78
2023/05/27 13:42:37;;;;;;;5.43;3.08;;;;;;;22.96;31.54;97047.88;4862196;29;20136;-75
2023/05/27 13:45:06;;;;;;;5.60;2.80;;;;;;;22.98;31.98;97045.78;4861763;29;20499;-75
2023/05/27 13:47:38;;;;;;;7.13;3.15;;;;;;;23.01;32.18;97039.97;4862287;29;20054;-75
2023/05/27 13:50:07;;;;;;;7.93;2.78;;;;;;;23.02;32.01;97036.28;4862036;29;20053;-75
2023/05/27 13:52:34;;;;;;;7.80;3.55;;;;;;;23.04;32.31;97030.69;4861834;29;20057;-76
2023/05/27 13:55:03;;;;;;;6.88;3.72;;;;;;;23.08;32.76;97034.44;4861683;29;20102;-75
2023/05/27 13:57:31;;;;;;;6.15;3.30;;;;;;;23.14;32.30;97024.66;4862244;29;20084;-75
2023/05/27 13:59:58;;;;;;;10.45;3.28;;;;;;;23.15;31.01;97028.91;4862198;29;20514;-76
2023/05/27 14:02:26;;;;;;;4.93;2.70;;;;;;;23.13;30.72;97023.03;4861484;29;20136;-75
2023/05/27 14:04:55;;;;;;;5.00;2.45;;;;;;;23.12;30.93;97021.44;4861777;29;20661;-76
2023/05/27 14:07:23;;;;;;;5.32;2.78;;;;;;;23.12;30.61;97018.78;4861863;29;20083;-75
2023/05/27 14:09:50;;;;;;;4.85;2.47;;;;;;;23.13;30.87;97010.53;4861842;29;20092;-76
2023/05/27 14:12:18;;;;;;;6.35;3.13;;;;;;;23.15;31.33;96999.66;4861784;29;20053;-75
2023/05/27 14:14:45;;;;;;;8.18;3.55;;;;;;;23.14;31.20;96998.06;4862177;29;20501;-76
2023/05/27 14:17:13;;;;;;;6.13;3.08;;;;;;;23.11;31.68;96996.72;4862830;29;20055;-76
2023/05/27 14:19:42;;;;;;;5.32;2.63;;;;;;;23.13;32.06;96986.59;4863543;29;20088;-75
2023/05/27 14:22:11;;;;;;;5.43;2.90;;;;;;;23.13;31.21;97001.75;4861427;29;20057;-75
2023/05/27 14:24:39;;;;;;;5.35;3.10;;;;;;;23.12;30.31;96992.19;4861218;29;20145;-75
2023/05/27 14:27:06;;;;;;;6.68;3.08;;;;;;;23.10;30.40;96988.97;4861700;29;20049;-75